Time;durP1;ratioP1;P1;durP2;ratioP2;P2;SDS_P1;SDS_P2;PMS_P1;PMS_P2;Temp;Humidity;BMP_temperature;BMP_pressure;BME280_temperature;BME280_humidity;BME280_pressure;Samples;Min_cycle;Max_cycle;Signal;HPM_P1;HPM_P2
2022/08/01 00:00:04;;;;;;;20.02;7.88;;;;;;;;;;5032501;28;20025;-67
2022/08/01 00:02:30;;;;;;;19.17;7.78;;;;;;;;;;5032999;28;20045;-67
2022/08/01 00:04:56;;;;;;;16.20;7.63;;;;;;;;;;5032386;28;20271;-66
2022/08/01 00:07:21;;;;;;;18.90;7.63;;;;;;;;;;5033002;28;20041;-68
2022/08/01 00:09:46;;;;;;;19.63;9.15;;;;;;;;;;5032649;28;20040;-66
2022/08/01 00:12:11;;;;;;;17.48;8.20;;;;;;;;;;5033093;28;20030;-67
2022/08/01 00:14:36;;;;;;;18.25;8.88;;;;;;;;;;5032305;28;20096;-66
2022/08/01 00:17:02;;;;;;;18.10;8.75;;;;;;;;;;5032582;28;20018;-66
2022/08/01 00:19:27;;;;;;;18.17;8.98;;;;;;;;;;5032256;28;20022;-67
2022/08/01 00:21:52;;;;;;;16.75;7.95;;;;;;;;;;5032625;28;20033;-66
2022/08/01 00:24:17;;;;;;;12.77;6.95;;;;;;;;;;5030772;28;20565;-67
2022/08/01 00:26:43;;;;;;;13.55;6.35;;;;;;;;;;5032250;28;20037;-67
2022/08/01 00:29:08;;;;;;;12.18;6.13;;;;;;;;;;5032321;28;20029;-67
2022/08/01 00:31:33;;;;;;;11.98;6.50;;;;;;;;;;5032458;28;20024;-66
2022/08/01 00:33:59;;;;;;;11.63;6.05;;;;;;;;;;5032236;28;20037;-67
2022/08/01 00:36:24;;;;;;;12.50;6.65;;;;;;;;;;5032098;28;20033;-67
2022/08/01 00:38:49;;;;;;;14.30;6.50;;;;;;;;;;5031406;28;20017;-66
2022/08/01 00:41:14;;;;;;;12.48;6.70;;;;;;;;;;5031840;28;20474;-67
2022/08/01 00:43:40;;;;;;;14.88;6.63;;;;;;;;;;5031496;28;20033;-66
2022/08/01 00:46:05;;;;;;;10.30;6.28;;;;;;;;;;5032160;28;20151;-67
2022/08/01 00:48:30;;;;;;;10.93;6.35;;;;;;;;;;5031914;28;20025;-67
2022/08/01 00:50:56;;;;;;;13.43;6.03;;;;;;;;;;5031814;28;20029;-67
2022/08/01 00:53:21;;;;;;;13.73;6.45;;;;;;;;;;5031368;28;20428;-67
2022/08/01 00:55:46;;;;;;;14.80;6.88;;;;;;;;;;5031731;28;20592;-67
2022/08/01 00:58:12;;;;;;;11.43;6.63;;;;;;;;;;5031569;28;20072;-67
2022/08/01 01:00:37;;;;;;;11.73;6.35;;;;;;;;;;5032290;28;20036;-67
2022/08/01 01:03:02;;;;;;;12.27;6.20;;;;;;;;;;5031636;28;20092;-67
2022/08/01 01:05:27;;;;;;;13.10;7.07;;;;;;;;;;5012032;28;20584;-67
2022/08/01 01:07:59;;;;;;;11.88;6.57;;;;;;;;;;5011846;28;20022;-67
2022/08/01 01:10:42;;;;;;;11.20;6.68;;;;;;;;;;5031116;28;20025;-67
2022/08/01 01:13:23;;;;;;;11.13;6.88;;;;;;;;;;5031249;28;20033;-67
2022/08/01 01:15:56;;;;;;;10.93;6.38;;;;;;;;;;5031747;28;20025;-67
2022/08/01 01:18:29;;;;;;;13.13;7.15;;;;;;;;;;5031340;28;20602;-67
2022/08/01 01:21:20;;;;;;;15.80;7.30;;;;;;;;;;5031280;28;20021;-67
2022/08/01 01:23:52;;;;;;;12.82;6.88;;;;;;;;;;5030049;28;20080;-67
2022/08/01 01:26:27;;;;;;;11.52;6.75;;;;;;;;;;5031669;28;20465;-67
2022/08/01 01:28:52;;;;;;;16.17;7.95;;;;;;;;;;5030952;28;20121;-67
2022/08/01 01:31:19;;;;;;;18.02;8.55;;;;;;;;;;5031609;28;20109;-67
2022/08/01 01:33:45;;;;;;;16.58;8.80;;;;;;;;;;5031248;28;20030;-67
2022/08/01 01:36:12;;;;;;;18.70;9.30;;;;;;;;;;5031169;28;20057;-67
2022/08/01 01:38:41;;;;;;;17.50;9.82;;;;;;;;;;5031187;28;20091;-67
2022/08/01 01:41:08;;;;;;;23.02;10.30;;;;;;;;;;5031196;28;20018;-67
2022/08/01 01:43:34;;;;;;;21.20;10.93;;;;;;;;;;5030656;28;20237;-67
2022/08/01 01:46:02;;;;;;;19.77;10.68;;;;;;;;;;5031131;28;20543;-67
2022/08/01 01:48:28;;;;;;;20.70;11.40;;;;;;;;;;5030677;28;20048;-67
2022/08/01 01:50:54;;;;;;;23.00;10.38;;;;;;;;;;5031227;28;20746;-67
2022/08/01 01:53:21;;;;;;;24.98;11.50;;;;;;;;;;5031053;28;20068;-67
2022/08/01 01:55:47;;;;;;;20.75;10.73;;;;;;;;;;5035004;28;20029;-67
2022/08/01 01:58:14;;;;;;;19.98;10.25;;;;;;;;;;5035116;28;20071;-67
2022/08/01 02:00:39;;;;;;;20.83;10.43;;;;;;;;;;5035332;28;20026;-67
2022/08/01 02:03:06;;;;;;;18.50;9.90;;;;;;;;;;5034872;28;20385;-67
2022/08/01 02:05:34;;;;;;;20.63;9.80;;;;;;;;;;5034836;28;20107;-68
2022/08/01 02:07:59;;;;;;;21.10;10.35;;;;;;;;;;5035233;28;20066;-66
2022/08/01 02:10:25;;;;;;;17.20;9.55;;;;;;;;;;5034746;28;20579;-67
2022/08/01 02:12:50;;;;;;;19.35;10.45;;;;;;;;;;5034765;28;20037;-67
2022/08/01 02:15:17;;;;;;;23.90;10.90;;;;;;;;;;5034792;28;20049;-66
2022/08/01 02:17:44;;;;;;;21.38;10.45;;;;;;;;;;5034783;28;20026;-67
2022/08/01 02:20:10;;;;;;;19.92;9.70;;;;;;;;;;5034827;28;20112;-67
2022/08/01 02:22:48;;;;;;;19.15;9.68;;;;;;;;;;5034468;28;20454;-67
2022/08/01 02:25:14;;;;;;;18.63;9.50;;;;;;;;;;5034352;28;20520;-67
2022/08/01 02:27:45;;;;;;;20.08;10.00;;;;;;;;;;5034780;28;20097;-67
2022/08/01 02:30:10;;;;;;;;;;;;;;;;;;5034752;28;20017;-67
2022/08/01 02:32:36;;;;;;;18.65;9.48;;;;;;;;;;5034509;28;19971;-67
2022/08/01 02:35:02;;;;;;;19.25;9.13;;;;;;;;;;5034345;28;20256;-67
2022/08/01 02:37:28;;;;;;;24.00;9.95;;;;;;;;;;5034695;28;20437;-66
2022/08/01 02:39:54;;;;;;;27.73;10.10;;;;;;;;;;5034330;28;20124;-67
2022/08/01 02:42:20;;;;;;;24.10;9.85;;;;;;;;;;5034575;28;20049;-67
2022/08/01 02:44:47;;;;;;;21.92;11.02;;;;;;;;;;5034239;28;20026;-67
2022/08/01 02:47:12;;;;;;;20.05;10.07;;;;;;;;;;5033600;28;20032;-67
2022/08/01 02:49:45;;;;;;;21.08;10.68;;;;;;;;;;5033639;28;20010;-67
2022/08/01 02:52:12;;;;;;;24.27;10.75;;;;;;;;;;5034549;28;20030;-67
2022/08/01 02:54:38;;;;;;;28.85;11.63;;;;;;;;;;5033627;28;20013;-67
2022/08/01 02:57:05;;;;;;;21.33;10.75;;;;;;;;;;5014330;28;20112;-67
2022/08/01 02:59:31;;;;;;;24.05;10.57;;;;;;;;;;5026163;28;20036;-67
2022/08/01 03:01:57;;;;;;;23.45;10.60;;;;;;;;;;5034206;28;20017;-67
2022/08/01 03:04:23;;;;;;;23.85;10.48;;;;;;;;;;5033314;28;20496;-68
2022/08/01 03:06:49;;;;;;;22.58;11.05;;;;;;;;;;5034007;28;20534;-67
2022/08/01 03:09:15;;;;;;;29.48;11.38;;;;;;;;;;5033472;28;20025;-68
2022/08/01 03:11:41;;;;;;;29.20;12.13;;;;;;;;;;5033723;28;20096;-68
2022/08/01 03:14:08;;;;;;;22.30;10.65;;;;;;;;;;5033696;28;20017;-67
2022/08/01 03:16:35;;;;;;;23.33;10.73;;;;;;;;;;5033618;28;20025;-67
2022/08/01 03:19:01;;;;;;;22.40;10.80;;;;;;;;;;5033656;28;20108;-68
2022/08/01 03:21:27;;;;;;;27.45;11.20;;;;;;;;;;5033782;28;20029;-67
2022/08/01 03:23:56;;;;;;;23.90;11.27;;;;;;;;;;5033533;28;20068;-67
2022/08/01 03:26:23;;;;;;;24.67;11.93;;;;;;;;;;5033645;28;20025;-68
2022/08/01 03:28:50;;;;;;;24.17;11.48;;;;;;;;;;5033466;28;20021;-67
2022/08/01 03:31:16;;;;;;;23.75;11.70;;;;;;;;;;5033347;28;20108;-67
2022/08/01 03:33:41;;;;;;;25.48;11.82;;;;;;;;;;5033125;28;20097;-68
2022/08/01 03:36:09;;;;;;;28.73;11.55;;;;;;;;;;5033294;28;20018;-67
2022/08/01 03:38:36;;;;;;;28.55;12.23;;;;;;;;;;5033261;28;20028;-67
2022/08/01 03:41:08;;;;;;;29.45;12.57;;;;;;;;;;5033401;28;20025;-67
2022/08/01 03:43:35;;;;;;;;;;;;;;;;;;5033306;28;20021;-67
2022/08/01 03:46:04;;;;;;;26.67;12.25;;;;;;;;;;5033398;28;19913;-68
2022/08/01 03:48:31;;;;;;;27.10;12.63;;;;;;;;;;5032986;28;20478;-68
2022/08/01 03:50:57;;;;;;;28.58;13.52;;;;;;;;;;5032739;28;20018;-68
2022/08/01 03:53:25;;;;;;;30.58;13.85;;;;;;;;;;5032664;28;20040;-68
2022/08/01 03:55:52;;;;;;;30.17;13.60;;;;;;;;;;5032690;28;20425;-67
2022/08/01 03:58:18;;;;;;;26.10;13.05;;;;;;;;;;5032555;28;20032;-67
2022/08/01 04:00:44;;;;;;;27.85;13.45;;;;;;;;;;5033084;28;20026;-68
2022/08/01 04:03:10;;;;;;;32.45;13.75;;;;;;;;;;5032210;28;20021;-68
2022/08/01 04:05:35;;;;;;;33.05;13.98;;;;;;;;;;5032938;28;20041;-67
2022/08/01 04:08:02;;;;;;;19.80;9.82;;;;;;;;;;5032735;28;20429;-68
2022/08/01 04:10:28;;;;;;;17.30;8.93;;;;;;;;;;5031716;28;20029;-68
2022/08/01 04:12:53;;;;;;;22.17;9.07;;;;;;;;;;5032481;28;20021;-67
2022/08/01 04:15:20;;;;;;;21.02;9.18;;;;;;;;;;5032261;28;20048;-68
2022/08/01 04:17:45;;;;;;;15.50;7.97;;;;;;;;;;5032232;28;20071;-67
2022/08/01 04:20:11;;;;;;;13.80;7.70;;;;;;;;;;5032513;28;20409;-67
2022/08/01 04:22:36;;;;;;;13.45;7.53;;;;;;;;;;5032325;28;20057;-68
2022/08/01 04:25:03;;;;;;;18.63;8.50;;;;;;;;;;5032154;28;20096;-68
2022/08/01 04:27:30;;;;;;;14.30;8.18;;;;;;;;;;5032266;28;20090;-68
2022/08/01 04:29:57;;;;;;;15.73;8.57;;;;;;;;;;5031911;28;20017;-68
2022/08/01 04:32:23;;;;;;;16.15;8.98;;;;;;;;;;5032547;28;20041;-68
2022/08/01 04:34:49;;;;;;;18.55;10.15;;;;;;;;;;5031993;28;20021;-68
2022/08/01 04:37:16;;;;;;;14.55;8.90;;;;;;;;;;5032230;28;20036;-67
2022/08/01 04:39:41;;;;;;;16.75;9.02;;;;;;;;;;5032054;28;20473;-67
2022/08/01 04:42:07;;;;;;;16.42;8.82;;;;;;;;;;5032342;28;20033;-68
2022/08/01 04:44:32;;;;;;;19.50;9.35;;;;;;;;;;5031626;28;20393;-68
2022/08/01 04:47:02;;;;;;;17.73;10.18;;;;;;;;;;5031289;28;20029;-68
2022/08/01 04:49:29;;;;;;;17.58;9.73;;;;;;;;;;5031785;28;20378;-68
2022/08/01 04:51:59;;;;;;;18.05;9.95;;;;;;;;;;5031783;28;20068;-68
2022/08/01 04:54:28;;;;;;;15.40;9.32;;;;;;;;;;5031490;28;20036;-67
2022/08/01 04:57:00;;;;;;;15.25;8.73;;;;;;;;;;5031718;28;20029;-67
2022/08/01 04:59:40;;;;;;;;;;;;;;;;;;5031961;28;20116;-67
2022/08/01 05:02:06;;;;;;;15.90;8.57;;;;;;;;;;5031296;28;19905;-68
2022/08/01 05:04:32;;;;;;;11.38;8.00;;;;;;;;;;5030214;28;20034;-68
2022/08/01 05:06:57;;;;;;;12.32;8.00;;;;;;;;;;5031557;28;20108;-68
2022/08/01 05:09:22;;;;;;;13.27;7.90;;;;;;;;;;5030071;28;20059;-68
2022/08/01 05:11:47;;;;;;;14.85;7.60;;;;;;;;;;5031850;28;20104;-68
2022/08/01 05:14:13;;;;;;;14.15;8.88;;;;;;;;;;5031140;28;20045;-68
2022/08/01 05:16:38;;;;;;;13.60;7.43;;;;;;;;;;5031253;28;20017;-67
2022/08/01 05:19:03;;;;;;;12.48;7.35;;;;;;;;;;5031492;28;20029;-68
2022/08/01 05:21:28;;;;;;;9.80;6.13;;;;;;;;;;5031438;28;20036;-67
2022/08/01 05:23:54;;;;;;;9.63;6.18;;;;;;;;;;5030935;28;20126;-67
2022/08/01 05:26:19;;;;;;;12.45;6.30;;;;;;;;;;5031606;28;20048;-67
2022/08/01 05:28:44;;;;;;;14.18;6.45;;;;;;;;;;5031042;28;20079;-67
2022/08/01 05:31:09;;;;;;;10.00;5.55;;;;;;;;;;5031525;28;20470;-67
2022/08/01 05:33:35;;;;;;;9.55;4.90;;;;;;;;;;5031198;28;20071;-67
2022/08/01 05:36:00;;;;;;;8.07;4.95;;;;;;;;;;5031321;28;20021;-67
2022/08/01 05:38:25;;;;;;;9.65;4.85;;;;;;;;;;5030959;28;20033;-67
2022/08/01 05:40:50;;;;;;;10.57;4.57;;;;;;;;;;5031036;28;20417;-68
2022/08/01 05:43:16;;;;;;;9.35;4.70;;;;;;;;;;5030772;28;20037;-67
2022/08/01 05:45:41;;;;;;;7.85;4.32;;;;;;;;;;5031336;28;20105;-67
2022/08/01 05:48:06;;;;;;;9.40;4.60;;;;;;;;;;5030819;28;20088;-67
2022/08/01 05:50:32;;;;;;;8.50;3.90;;;;;;;;;;5031296;28;20037;-67
2022/08/01 05:52:57;;;;;;;9.27;3.78;;;;;;;;;;5031079;28;20034;-68
2022/08/01 05:55:23;;;;;;;8.68;3.65;;;;;;;;;;5029478;28;20026;-67
2022/08/01 05:57:48;;;;;;;5.97;2.95;;;;;;;;;;5030813;28;20076;-67
2022/08/01 06:00:14;;;;;;;7.60;3.47;;;;;;;;;;5030549;28;20371;-68
2022/08/01 06:02:40;;;;;;;9.07;2.85;;;;;;;;;;5031082;28;20109;-67
2022/08/01 06:05:06;;;;;;;8.93;2.78;;;;;;;;;;5030553;28;20409;-67
2022/08/01 06:07:31;;;;;;;5.32;2.05;;;;;;;;;;5031122;28;20029;-67
2022/08/01 06:09:56;;;;;;;5.78;2.08;;;;;;;;;;5029480;28;20078;-67
2022/08/01 06:12:21;;;;;;;6.78;2.20;;;;;;;;;;5030888;28;20100;-67
2022/08/01 06:14:46;;;;;;;4.57;1.90;;;;;;;;;;5030508;28;20111;-67
2022/08/01 06:17:12;;;;;;;5.57;1.92;;;;;;;;;;5031147;28;20076;-67
2022/08/01 06:19:37;;;;;;;5.13;2.50;;;;;;;;;;5030606;28;20453;-67
2022/08/01 06:22:02;;;;;;;6.32;2.30;;;;;;;;;;5030935;28;20029;-67
2022/08/01 06:24:27;;;;;;;7.45;2.40;;;;;;;;;;5030798;28;20033;-69
2022/08/01 06:26:53;;;;;;;6.63;2.22;;;;;;;;;;5030624;28;20013;-67
2022/08/01 06:29:18;;;;;;;9.43;2.60;;;;;;;;;;5030881;28;20117;-67
2022/08/01 06:31:43;;;;;;;5.85;2.10;;;;;;;;;;5030996;28;20033;-67
2022/08/01 06:34:08;;;;;;;6.97;2.47;;;;;;;;;;5030741;28;20023;-67
2022/08/01 06:36:34;;;;;;;6.35;2.50;;;;;;;;;;5029287;28;20029;-67
2022/08/01 06:38:59;;;;;;;5.95;2.47;;;;;;;;;;5030325;28;20456;-67
2022/08/01 06:41:24;;;;;;;6.35;2.50;;;;;;;;;;5033776;28;20049;-68
2022/08/01 06:43:49;;;;;;;7.18;2.28;;;;;;;;;;5033933;28;20525;-67
2022/08/01 06:46:15;;;;;;;7.03;2.10;;;;;;;;;;5034079;28;20030;-67
2022/08/01 06:48:40;;;;;;;7.85;2.55;;;;;;;;;;5033928;28;20029;-67
2022/08/01 06:51:08;;;;;;;7.40;2.53;;;;;;;;;;5033811;28;20017;-67
2022/08/01 06:53:37;;;;;;;10.57;2.60;;;;;;;;;;5018424;28;20155;-67
2022/08/01 06:56:02;;;;;;;10.27;2.88;;;;;;;;;;5033587;28;20451;-67
2022/08/01 06:58:30;;;;;;;11.32;5.10;;;;;;;;;;5033832;28;20104;-67
2022/08/01 07:00:55;;;;;;;13.52;7.45;;;;;;;;;;5034217;28;20102;-68
2022/08/01 07:03:20;;;;;;;14.82;7.30;;;;;;;;;;5033829;28;20037;-68
2022/08/01 07:05:46;;;;;;;12.75;6.90;;;;;;;;;;5034007;28;20451;-67
2022/08/01 07:08:11;;;;;;;13.95;7.20;;;;;;;;;;5033893;28;20415;-67
2022/08/01 07:10:36;;;;;;;16.95;7.82;;;;;;;;;;5034090;28;20025;-68
2022/08/01 07:13:01;;;;;;;17.73;9.75;;;;;;;;;;5033842;28;20097;-68
2022/08/01 07:15:27;;;;;;;20.70;11.82;;;;;;;;;;5033622;28;20061;-67
2022/08/01 07:17:52;;;;;;;21.45;12.02;;;;;;;;;;5033673;28;20037;-67
2022/08/01 07:20:17;;;;;;;19.88;11.65;;;;;;;;;;5032117;28;20456;-67
2022/08/01 07:22:43;;;;;;;19.40;10.32;;;;;;;;;;5033382;28;20108;-68
2022/08/01 07:25:08;;;;;;;17.77;9.50;;;;;;;;;;5033641;28;20021;-67
2022/08/01 07:27:33;;;;;;;17.00;8.73;;;;;;;;;;5033652;28;20668;-68
2022/08/01 07:29:59;;;;;;;16.75;8.70;;;;;;;;;;5033548;28;20033;-68
2022/08/01 07:32:24;;;;;;;12.07;7.88;;;;;;;;;;5033686;28;20021;-68
2022/08/01 07:34:49;;;;;;;10.80;6.40;;;;;;;;;;5032939;28;20546;-67
2022/08/01 07:37:14;;;;;;;9.65;4.50;;;;;;;;;;5033343;28;20029;-67
2022/08/01 07:39:40;;;;;;;9.25;3.75;;;;;;;;;;5032876;28;20041;-68
2022/08/01 07:42:05;;;;;;;8.15;3.50;;;;;;;;;;5033082;28;20035;-68
2022/08/01 07:44:30;;;;;;;7.95;3.10;;;;;;;;;;5033021;28;20123;-68
2022/08/01 07:46:55;;;;;;;7.68;2.90;;;;;;;;;;5033275;28;20029;-67
2022/08/01 07:49:21;;;;;;;8.02;2.58;;;;;;;;;;5033003;28;20100;-67
2022/08/01 07:51:47;;;;;;;10.63;2.53;;;;;;;;;;5032139;28;20053;-68
2022/08/01 07:54:12;;;;;;;10.68;2.97;;;;;;;;;;5032659;28;20036;-68
2022/08/01 07:56:37;;;;;;;7.15;2.40;;;;;;;;;;5031453;28;20030;-67
2022/08/01 07:59:02;;;;;;;11.77;3.22;;;;;;;;;;5032471;28;20033;-68
2022/08/01 08:01:28;;;;;;;11.25;2.97;;;;;;;;;;5033060;28;20393;-67
2022/08/01 08:03:53;;;;;;;12.43;3.53;;;;;;;;;;5032358;28;20644;-67
2022/08/01 08:06:18;;;;;;;12.32;3.75;;;;;;;;;;5032940;28;20029;-68
2022/08/01 08:08:43;;;;;;;12.02;4.40;;;;;;;;;;5032662;28;20061;-67
2022/08/01 08:11:09;;;;;;;13.63;3.92;;;;;;;;;;5032603;28;20083;-68
2022/08/01 08:13:34;;;;;;;13.38;4.65;;;;;;;;;;5032746;28;20477;-67
2022/08/01 08:15:59;;;;;;;14.60;4.93;;;;;;;;;;5032860;28;20462;-67
2022/08/01 08:18:25;;;;;;;12.77;5.30;;;;;;;;;;5032285;28;20037;-67
2022/08/01 08:20:50;;;;;;;11.35;4.57;;;;;;;;;;5032760;28;20036;-67
2022/08/01 08:25:59;;;;;;;17.98;5.03;;;;;;;;;;5032328;28;20114;-68
2022/08/01 08:28:24;;;;;;;12.52;4.72;;;;;;;;;;5032145;28;20057;-68
2022/08/01 08:30:50;;;;;;;9.90;4.15;;;;;;;;;;5032610;28;20104;-68
2022/08/01 08:33:15;;;;;;;10.63;3.20;;;;;;;;;;5032441;28;20028;-67
2022/08/01 08:35:43;;;;;;;11.73;3.00;;;;;;;;;;5032390;28;20022;-68
2022/08/01 08:38:08;;;;;;;11.07;2.65;;;;;;;;;;5032104;28;20091;-68
2022/08/01 08:40:35;;;;;;;8.40;2.13;;;;;;;;;;5032277;28;20092;-67
2022/08/01 08:43:01;;;;;;;9.50;2.00;;;;;;;;;;5031706;28;20112;-67
2022/08/01 08:45:27;;;;;;;7.07;1.95;;;;;;;;;;5032113;28;20032;-67
2022/08/01 08:47:54;;;;;;;9.40;1.90;;;;;;;;;;5031871;28;20033;-67
2022/08/01 08:50:20;;;;;;;8.38;1.75;;;;;;;;;;5031226;28;20037;-67
2022/08/01 08:52:45;;;;;;;8.52;1.85;;;;;;;;;;5031858;28;20036;-68
2022/08/01 08:55:11;;;;;;;8.13;1.88;;;;;;;;;;5031793;28;20036;-67
2022/08/01 08:57:39;;;;;;;10.48;1.83;;;;;;;;;;5031668;28;20075;-67
2022/08/01 09:00:04;;;;;;;8.32;1.98;;;;;;;;;;5031723;28;20036;-67
2022/08/01 09:02:30;;;;;;;9.30;2.10;;;;;;;;;;5030913;28;20290;-67
2022/08/01 09:04:55;;;;;;;9.07;2.03;;;;;;;;;;5031617;28;20034;-67
2022/08/01 09:07:20;;;;;;;9.30;1.90;;;;;;;;;;5031590;28;20029;-67
2022/08/01 09:09:48;;;;;;;11.05;2.58;;;;;;;;;;5031563;28;20113;-67
2022/08/01 09:12:15;;;;;;;8.93;2.35;;;;;;;;;;5031569;28;20096;-67
2022/08/01 09:14:45;;;;;;;17.05;2.70;;;;;;;;;;5029802;28;20029;-67
2022/08/01 09:17:12;;;;;;;13.38;2.55;;;;;;;;;;5031533;28;20071;-67
2022/08/01 09:19:41;;;;;;;10.95;2.60;;;;;;;;;;5031470;28;20029;-67
2022/08/01 09:22:11;;;;;;;9.75;2.50;;;;;;;;;;5031449;28;20018;-67
2022/08/01 09:24:36;;;;;;;9.75;2.75;;;;;;;;;;5030923;28;20489;-68
2022/08/01 09:27:15;;;;;;;11.20;2.67;;;;;;;;;;5031130;28;20028;-67
2022/08/01 09:29:41;;;;;;;11.02;2.13;;;;;;;;;;5031236;28;20049;-67
2022/08/01 09:32:06;;;;;;;10.57;2.40;;;;;;;;;;5031443;28;20079;-68
2022/08/01 09:34:32;;;;;;;8.65;1.73;;;;;;;;;;5030888;28;20474;-68
2022/08/01 09:36:59;;;;;;;8.82;2.45;;;;;;;;;;5030985;28;20033;-68
2022/08/01 09:39:25;;;;;;;8.57;2.05;;;;;;;;;;5031115;28;20382;-68
2022/08/01 09:41:51;;;;;;;8.23;1.92;;;;;;;;;;5031537;28;20439;-68
2022/08/01 09:44:17;;;;;;;10.75;2.05;;;;;;;;;;5031227;28;20105;-68
2022/08/01 09:46:55;;;;;;;7.28;1.98;;;;;;;;;;5030972;28;20382;-67
2022/08/01 09:49:31;;;;;;;7.60;2.15;;;;;;;;;;5030778;28;20025;-68
2022/08/01 09:51:57;;;;;;;6.57;1.77;;;;;;;;;;5031149;28;20030;-67
2022/08/01 09:54:29;;;;;;;7.63;1.80;;;;;;;;;;5031249;28;20025;-68
2022/08/01 09:57:06;;;;;;;9.07;1.60;;;;;;;;;;5031075;28;20040;-67
2022/08/01 09:59:40;;;;;;;9.07;1.60;;;;;;;;;;5030684;28;20032;-68
2022/08/01 10:02:05;;;;;;;8.98;1.75;;;;;;;;;;5031212;28;20029;-67
2022/08/01 10:04:30;;;;;;;9.43;1.90;;;;;;;;;;5030974;28;20121;-67
2022/08/01 10:07:03;;;;;;;8.57;1.88;;;;;;;;;;5030545;28;20017;-68
2022/08/01 10:09:30;;;;;;;10.82;1.83;;;;;;;;;;5030584;28;20560;-68
2022/08/01 10:11:56;;;;;;;7.32;1.85;;;;;;;;;;5031194;28;20116;-67
2022/08/01 10:14:22;;;;;;;9.20;1.85;;;;;;;;;;5030656;28;20108;-68
2022/08/01 10:16:47;;;;;;;9.15;1.73;;;;;;;;;;5035197;28;20118;-67
2022/08/01 10:19:13;;;;;;;12.65;2.05;;;;;;;;;;5034719;28;20434;-68
2022/08/01 10:21:38;;;;;;;11.80;1.92;;;;;;;;;;5034632;28;20021;-68
2022/08/01 10:24:05;;;;;;;8.63;1.73;;;;;;;;;;5034268;28;20025;-67
2022/08/01 10:26:33;;;;;;;7.45;1.42;;;;;;;;;;5034663;28;20068;-67
2022/08/01 10:28:58;;;;;;;9.85;1.80;;;;;;;;;;5034541;28;20018;-67
2022/08/01 10:31:23;;;;;;;9.55;2.10;;;;;;;;;;5034881;28;20519;-67
2022/08/01 10:33:50;;;;;;;6.95;1.58;;;;;;;;;;5034311;28;20022;-67
2022/08/01 10:36:17;;;;;;;8.32;1.63;;;;;;;;;;5034372;28;20024;-67
2022/08/01 10:38:42;;;;;;;8.05;1.70;;;;;;;;;;5034049;28;20029;-67
2022/08/01 10:41:08;;;;;;;9.48;1.70;;;;;;;;;;5034639;28;20048;-67
2022/08/01 10:43:33;;;;;;;7.55;1.63;;;;;;;;;;5034313;28;20036;-68
2022/08/01 10:45:59;;;;;;;10.55;1.75;;;;;;;;;;5034225;28;20369;-68
2022/08/01 10:48:28;;;;;;;9.43;1.80;;;;;;;;;;5034198;28;20093;-68
2022/08/01 10:50:55;;;;;;;8.80;1.77;;;;;;;;;;5034329;28;20529;-68
2022/08/01 10:53:25;;;;;;;10.07;1.83;;;;;;;;;;5033952;28;20043;-68
2022/08/01 10:56:01;;;;;;;8.70;1.70;;;;;;;;;;5033880;28;20617;-68
2022/08/01 10:58:36;;;;;;;8.13;1.80;;;;;;;;;;5033635;28;20017;-68
2022/08/01 11:01:18;;;;;;;6.25;1.45;;;;;;;;;;5034110;28;20482;-68
2022/08/01 11:03:55;;;;;;;6.55;1.30;;;;;;;;;;5033307;28;20016;-68
2022/08/01 11:06:26;;;;;;;8.82;1.77;;;;;;;;;;5034057;28;20034;-67
2022/08/01 11:08:53;;;;;;;10.13;1.92;;;;;;;;;;5033458;28;20056;-68
2022/08/01 11:11:19;;;;;;;10.60;1.65;;;;;;;;;;5034198;28;20406;-67
2022/08/01 11:14:20;;;;;;;7.40;1.52;;;;;;;;;;5033758;28;20035;-68
2022/08/01 11:16:45;;;;;;;9.18;1.60;;;;;;;;;;5033570;28;20096;-68
2022/08/01 11:19:10;;;;;;;6.85;1.65;;;;;;;;;;5033663;28;20425;-68
2022/08/01 11:21:54;;;;;;;7.63;1.63;;;;;;;;;;5033855;28;20026;-69
2022/08/01 11:24:43;;;;;;;9.00;1.63;;;;;;;;;;5033257;28;20386;-67
2022/08/01 11:27:27;;;;;;;11.93;2.03;;;;;;;;;;5032861;28;20124;-70
2022/08/01 11:30:07;;;;;;;10.82;1.80;;;;;;;;;;5033187;28;20028;-67
2022/08/01 11:32:33;;;;;;;10.13;2.03;;;;;;;;;;5033524;28;20025;-68
2022/08/01 11:34:58;;;;;;;14.20;2.05;;;;;;;;;;5033190;28;20025;-68
2022/08/01 11:37:29;;;;;;;9.23;1.83;;;;;;;;;;5033379;28;20040;-68
2022/08/01 11:40:13;;;;;;;7.68;2.05;;;;;;;;;;5033270;28;20462;-68
2022/08/01 11:42:38;;;;;;;8.02;1.60;;;;;;;;;;5033603;28;20022;-68
2022/08/01 11:45:04;;;;;;;10.25;2.28;;;;;;;;;;5032861;28;20389;-68
2022/08/01 11:47:46;;;;;;;9.65;2.17;;;;;;;;;;5033331;28;20386;-68
2022/08/01 11:50:30;;;;;;;9.80;1.77;;;;;;;;;;5032908;28;20049;-68
2022/08/01 11:53:04;;;;;;;11.77;1.77;;;;;;;;;;5032909;28;20034;-68
2022/08/01 11:55:29;;;;;;;9.55;1.85;;;;;;;;;;5032952;28;20036;-67
2022/08/01 11:58:01;;;;;;;14.20;2.00;;;;;;;;;;5033229;28;20050;-68
2022/08/01 12:00:27;;;;;;;10.27;2.13;;;;;;;;;;5032792;28;20405;-68
2022/08/01 12:02:59;;;;;;;9.75;1.77;;;;;;;;;;5032787;28;20025;-67
2022/08/01 12:05:26;;;;;;;8.80;1.60;;;;;;;;;;5032578;28;20057;-68
2022/08/01 12:07:52;;;;;;;10.98;1.85;;;;;;;;;;5032617;28;20393;-69
2022/08/01 12:10:18;;;;;;;6.63;1.80;;;;;;;;;;5032750;28;20022;-69
2022/08/01 12:12:45;;;;;;;10.50;1.90;;;;;;;;;;5032625;28;20025;-69
2022/08/01 12:15:11;;;;;;;9.23;1.60;;;;;;;;;;5032472;28;20032;-69
2022/08/01 12:17:37;;;;;;;8.50;2.05;;;;;;;;;;5032975;28;20026;-68
2022/08/01 12:20:04;;;;;;;10.07;1.67;;;;;;;;;;5031002;28;20108;-67
2022/08/01 12:22:29;;;;;;;9.07;1.65;;;;;;;;;;5032828;28;20108;-68
2022/08/01 12:24:55;;;;;;;8.77;1.83;;;;;;;;;;5032520;28;20567;-68
2022/08/01 12:27:30;;;;;;;7.93;1.42;;;;;;;;;;5032293;28;20025;-67
2022/08/01 12:29:56;;;;;;;9.68;1.45;;;;;;;;;;5032003;28;20049;-68
2022/08/01 12:32:23;;;;;;;11.48;1.90;;;;;;;;;;5032273;28;20021;-68
2022/08/01 12:34:48;;;;;;;8.70;1.50;;;;;;;;;;5031867;28;20105;-67
2022/08/01 12:37:14;;;;;;;7.45;1.70;;;;;;;;;;5032175;28;20100;-67
2022/08/01 12:39:40;;;;;;;7.35;1.50;;;;;;;;;;5031961;28;20091;-68
2022/08/01 12:42:06;;;;;;;6.88;1.60;;;;;;;;;;5032033;28;20035;-67
2022/08/01 12:44:32;;;;;;;8.57;1.45;;;;;;;;;;5030608;28;20064;-67
2022/08/01 12:46:57;;;;;;;7.50;1.60;;;;;;;;;;5032284;28;20446;-68
2022/08/01 12:49:23;;;;;;;7.20;1.42;;;;;;;;;;5031396;28;20104;-67
2022/08/01 12:51:48;;;;;;;8.35;1.70;;;;;;;;;;5032174;28;20599;-67
2022/08/01 12:54:14;;;;;;;11.63;1.70;;;;;;;;;;5031682;28;20083;-67
2022/08/01 12:56:39;;;;;;;8.10;1.55;;;;;;;;;;5032157;28;20028;-67
2022/08/01 12:59:27;;;;;;;10.00;1.40;;;;;;;;;;5031468;28;20478;-68
2022/08/01 13:01:53;;;;;;;10.13;1.85;;;;;;;;;;5031748;28;20022;-67
2022/08/01 13:04:18;;;;;;;7.30;1.60;;;;;;;;;;5031751;28;20144;-67
2022/08/01 13:06:43;;;;;;;9.10;1.70;;;;;;;;;;5031777;28;20432;-67
2022/08/01 13:09:11;;;;;;;6.78;1.40;;;;;;;;;;5031569;28;20062;-68
2022/08/01 13:11:36;;;;;;;7.95;1.52;;;;;;;;;;5031040;28;20048;-67
2022/08/01 13:14:01;;;;;;;6.90;1.40;;;;;;;;;;5031498;28;20041;-67
2022/08/01 13:16:27;;;;;;;12.43;2.15;;;;;;;;;;5032002;28;20025;-67
2022/08/01 13:18:53;;;;;;;12.55;2.35;;;;;;;;;;5031460;28;20486;-67
2022/08/01 13:21:39;;;;;;;6.47;1.48;;;;;;;;;;5031703;28;20382;-67
2022/08/01 13:24:06;;;;;;;8.50;1.40;;;;;;;;;;5030945;28;20033;-68
2022/08/01 13:26:42;;;;;;;9.55;1.50;;;;;;;;;;5031661;28;20029;-67
2022/08/01 13:29:08;;;;;;;5.90;1.25;;;;;;;;;;5031415;28;20382;-67
2022/08/01 13:31:34;;;;;;;6.05;1.45;;;;;;;;;;5031628;28;20025;-67
2022/08/01 13:34:00;;;;;;;8.55;1.50;;;;;;;;;;5031020;28;20049;-67
2022/08/01 13:36:28;;;;;;;10.13;1.70;;;;;;;;;;5031273;28;20032;-68
2022/08/01 13:41:38;;;;;;;6.13;1.45;;;;;;;;;;5031460;28;20033;-68
2022/08/01 13:44:03;;;;;;;10.85;1.50;;;;;;;;;;5031183;28;20025;-67
2022/08/01 13:46:28;;;;;;;5.40;1.20;;;;;;;;;;5031166;28;20025;-67
2022/08/01 13:48:54;;;;;;;5.72;1.30;;;;;;;;;;5031013;28;20384;-67
2022/08/01 13:51:19;;;;;;;7.00;1.50;;;;;;;;;;5034301;28;20026;-67
2022/08/01 13:53:44;;;;;;;7.55;1.52;;;;;;;;;;5035304;28;20040;-67
2022/08/01 13:56:10;;;;;;;5.75;1.40;;;;;;;;;;5035575;28;20132;-67
2022/08/01 13:58:36;;;;;;;7.35;1.20;;;;;;;;;;5034841;28;20021;-67
2022/08/01 14:01:01;;;;;;;5.93;1.30;;;;;;;;;;5035276;28;20091;-68
2022/08/01 14:03:27;;;;;;;9.43;1.65;;;;;;;;;;5035132;28;20034;-67
2022/08/01 14:05:52;;;;;;;7.97;1.63;;;;;;;;;;5035292;28;20088;-67
2022/08/01 14:08:17;;;;;;;9.60;1.52;;;;;;;;;;5035058;28;20020;-68
2022/08/01 14:10:42;;;;;;;6.95;1.55;;;;;;;;;;5034335;28;21555;-67
2022/08/01 14:13:08;;;;;;;6.72;1.40;;;;;;;;;;5034891;28;20022;-67
2022/08/01 14:15:33;;;;;;;5.22;1.20;;;;;;;;;;5035166;28;20033;-67
2022/08/01 14:17:59;;;;;;;8.38;1.45;;;;;;;;;;5034782;28;20116;-67
2022/08/01 14:20:24;;;;;;;7.00;1.42;;;;;;;;;;5034430;28;20063;-67
2022/08/01 14:22:49;;;;;;;6.90;1.38;;;;;;;;;;5034718;28;20080;-67
2022/08/01 14:25:15;;;;;;;7.80;1.40;;;;;;;;;;5034630;28;20037;-67
2022/08/01 14:27:41;;;;;;;6.80;1.30;;;;;;;;;;5034611;28;20470;-67
2022/08/01 14:30:07;;;;;;;8.32;1.90;;;;;;;;;;5034732;28;20029;-67
2022/08/01 14:32:33;;;;;;;6.15;1.40;;;;;;;;;;5034480;28;20030;-67
2022/08/01 14:34:58;;;;;;;7.55;1.40;;;;;;;;;;5033254;28;20022;-67
2022/08/01 14:37:23;;;;;;;5.90;1.35;;;;;;;;;;5034742;28;20049;-67